sensor_id;sensor_type;location;lat;lon;timestamp;P1;durP1;ratioP1;P2;durP2;ratioP2
16766;SDS011;8501;49.926;8.404;2022-12-10T00:00:22;32.73;;;14.63;;
16766;SDS011;8501;49.926;8.404;2022-12-10T00:02:48;29.37;;;14.60;;
16766;SDS011;8501;49.926;8.404;2022-12-10T00:05:14;30.47;;;13.93;;
16766;SDS011;8501;49.926;8.404;2022-12-10T00:07:39;30.37;;;14.03;;
16766;SDS011;8501;49.926;8.404;2022-12-10T00:10:05;32.03;;;14.60;;
16766;SDS011;8501;49.926;8.404;2022-12-10T00:12:31;32.03;;;15.20;;
16766;SDS011;8501;49.926;8.404;2022-12-10T00:14:57;33.43;;;14.57;;
16766;SDS011;8501;49.926;8.404;2022-12-10T00:17:22;30.70;;;14.20;;
16766;SDS011;8501;49.926;8.404;2022-12-10T00:19:48;33.33;;;14.70;;
16766;SDS011;8501;49.926;8.404;2022-12-10T00:22:13;32.63;;;14.73;;
16766;SDS011;8501;49.926;8.404;2022-12-10T00:24:39;32.23;;;15.20;;
16766;SDS011;8501;49.926;8.404;2022-12-10T00:27:04;30.70;;;14.93;;
16766;SDS011;8501;49.926;8.404;2022-12-10T00:29:30;31.73;;;14.97;;
16766;SDS011;8501;49.926;8.404;2022-12-10T00:31:55;32.90;;;15.20;;
16766;SDS011;8501;49.926;8.404;2022-12-10T00:34:21;32.00;;;15.60;;
16766;SDS011;8501;49.926;8.404;2022-12-10T00:36:47;32.43;;;14.77;;
16766;SDS011;8501;49.926;8.404;2022-12-10T00:39:15;28.60;;;14.40;;
16766;SDS011;8501;49.926;8.404;2022-12-10T00:41:42;32.53;;;14.43;;
16766;SDS011;8501;49.926;8.404;2022-12-10T00:44:08;33.63;;;15.93;;
16766;SDS011;8501;49.926;8.404;2022-12-10T00:46:34;31.17;;;14.53;;
16766;SDS011;8501;49.926;8.404;2022-12-10T00:48:59;34.17;;;15.30;;
16766;SDS011;8501;49.926;8.404;2022-12-10T00:51:26;38.53;;;16.60;;
16766;SDS011;8501;49.926;8.404;2022-12-10T00:53:53;47.63;;;20.33;;
16766;SDS011;8501;49.926;8.404;2022-12-10T00:56:24;35.20;;;17.17;;
16766;SDS011;8501;49.926;8.404;2022-12-10T00:58:52;33.63;;;15.50;;
16766;SDS011;8501;49.926;8.404;2022-12-10T01:01:31;28.93;;;14.33;;
16766;SDS011;8501;49.926;8.404;2022-12-10T01:04:00;32.07;;;15.07;;
16766;SDS011;8501;49.926;8.404;2022-12-10T01:06:30;31.07;;;14.80;;
16766;SDS011;8501;49.926;8.404;2022-12-10T01:08:58;32.07;;;14.73;;
16766;SDS011;8501;49.926;8.404;2022-12-10T01:11:28;29.77;;;14.23;;
16766;SDS011;8501;49.926;8.404;2022-12-10T01:13:55;32.47;;;14.83;;
16766;SDS011;8501;49.926;8.404;2022-12-10T01:16:22;28.27;;;13.73;;
16766;SDS011;8501;49.926;8.404;2022-12-10T01:18:48;31.27;;;14.10;;
16766;SDS011;8501;49.926;8.404;2022-12-10T01:21:15;28.33;;;14.07;;
16766;SDS011;8501;49.926;8.404;2022-12-10T01:23:43;33.47;;;14.90;;
16766;SDS011;8501;49.926;8.404;2022-12-10T01:26:11;28.70;;;13.70;;
16766;SDS011;8501;49.926;8.404;2022-12-10T01:28:39;32.70;;;14.17;;
16766;SDS011;8501;49.926;8.404;2022-12-10T01:31:13;32.13;;;14.00;;
16766;SDS011;8501;49.926;8.404;2022-12-10T01:33:41;31.33;;;14.17;;
16766;SDS011;8501;49.926;8.404;2022-12-10T01:36:11;33.30;;;15.33;;
16766;SDS011;8501;49.926;8.404;2022-12-10T01:38:57;33.07;;;14.53;;
16766;SDS011;8501;49.926;8.404;2022-12-10T01:41:25;34.07;;;15.73;;
16766;SDS011;8501;49.926;8.404;2022-12-10T01:44:05;35.93;;;15.57;;
16766;SDS011;8501;49.926;8.404;2022-12-10T01:46:52;32.80;;;15.27;;
16766;SDS011;8501;49.926;8.404;2022-12-10T01:49:21;32.83;;;14.73;;
16766;SDS011;8501;49.926;8.404;2022-12-10T01:51:53;30.90;;;14.70;;
16766;SDS011;8501;49.926;8.404;2022-12-10T01:54:24;32.47;;;15.37;;
16766;SDS011;8501;49.926;8.404;2022-12-10T01:56:58;33.03;;;15.20;;
16766;SDS011;8501;49.926;8.404;2022-12-10T01:59:27;34.63;;;15.30;;
16766;SDS011;8501;49.926;8.404;2022-12-10T02:13:43;35.67;;;15.47;;
16766;SDS011;8501;49.926;8.404;2022-12-10T02:16:17;34.20;;;15.23;;
16766;SDS011;8501;49.926;8.404;2022-12-10T02:18:48;35.73;;;15.33;;
16766;SDS011;8501;49.926;8.404;2022-12-10T02:21:34;37.77;;;15.70;;
16766;SDS011;8501;49.926;8.404;2022-12-10T02:24:06;41.37;;;17.20;;
16766;SDS011;8501;49.926;8.404;2022-12-10T02:26:40;33.90;;;15.80;;
16766;SDS011;8501;49.926;8.404;2022-12-10T02:29:23;35.00;;;15.77;;
16766;SDS011;8501;49.926;8.404;2022-12-10T02:31:56;32.50;;;15.07;;
16766;SDS011;8501;49.926;8.404;2022-12-10T02:34:32;33.27;;;15.00;;
16766;SDS011;8501;49.926;8.404;2022-12-10T02:37:03;35.20;;;14.97;;
16766;SDS011;8501;49.926;8.404;2022-12-10T02:39:32;31.53;;;14.73;;
16766;SDS011;8501;49.926;8.404;2022-12-10T02:42:01;32.87;;;14.70;;
16766;SDS011;8501;49.926;8.404;2022-12-10T02:44:28;30.83;;;14.40;;
16766;SDS011;8501;49.926;8.404;2022-12-10T02:46:56;32.00;;;14.37;;
16766;SDS011;8501;49.926;8.404;2022-12-10T02:49:37;31.70;;;14.43;;
16766;SDS011;8501;49.926;8.404;2022-12-10T02:52:06;29.23;;;13.50;;
16766;SDS011;8501;49.926;8.404;2022-12-10T02:54:37;25.43;;;12.73;;
16766;SDS011;8501;49.926;8.404;2022-12-10T03:02:42;27.43;;;13.00;;
16766;SDS011;8501;49.926;8.404;2022-12-10T03:08:22;26.97;;;12.83;;
16766;SDS011;8501;49.926;8.404;2022-12-10T03:11:01;24.03;;;12.20;;
16766;SDS011;8501;49.926;8.404;2022-12-10T03:13:37;25.87;;;12.20;;
16766;SDS011;8501;49.926;8.404;2022-12-10T03:16:08;21.93;;;11.30;;
16766;SDS011;8501;49.926;8.404;2022-12-10T03:18:35;25.50;;;12.07;;
16766;SDS011;8501;49.926;8.404;2022-12-10T03:21:03;22.73;;;12.10;;
16766;SDS011;8501;49.926;8.404;2022-12-10T03:23:31;22.97;;;11.30;;
16766;SDS011;8501;49.926;8.404;2022-12-10T03:25:59;23.07;;;12.00;;
16766;SDS011;8501;49.926;8.404;2022-12-10T03:28:26;23.67;;;11.37;;
16766;SDS011;8501;49.926;8.404;2022-12-10T03:30:54;23.73;;;11.47;;
16766;SDS011;8501;49.926;8.404;2022-12-10T03:33:21;22.07;;;11.23;;
16766;SDS011;8501;49.926;8.404;2022-12-10T03:35:47;23.40;;;11.43;;
16766;SDS011;8501;49.926;8.404;2022-12-10T03:38:13;21.73;;;10.93;;
16766;SDS011;8501;49.926;8.404;2022-12-10T03:40:39;24.60;;;11.80;;
16766;SDS011;8501;49.926;8.404;2022-12-10T03:43:04;22.97;;;11.30;;
16766;SDS011;8501;49.926;8.404;2022-12-10T03:45:30;23.53;;;11.00;;
16766;SDS011;8501;49.926;8.404;2022-12-10T03:47:55;22.73;;;11.33;;
16766;SDS011;8501;49.926;8.404;2022-12-10T03:50:21;22.60;;;11.90;;
16766;SDS011;8501;49.926;8.404;2022-12-10T03:52:46;22.73;;;11.97;;
16766;SDS011;8501;49.926;8.404;2022-12-10T03:55:12;25.10;;;11.80;;
16766;SDS011;8501;49.926;8.404;2022-12-10T03:57:37;23.23;;;11.80;;
16766;SDS011;8501;49.926;8.404;2022-12-10T04:00:03;25.07;;;11.97;;
16766;SDS011;8501;49.926;8.404;2022-12-10T04:02:30;24.70;;;12.10;;
16766;SDS011;8501;49.926;8.404;2022-12-10T04:04:56;22.47;;;11.60;;
16766;SDS011;8501;49.926;8.404;2022-12-10T04:07:21;26.53;;;11.67;;
16766;SDS011;8501;49.926;8.404;2022-12-10T04:09:47;24.77;;;11.83;;
16766;SDS011;8501;49.926;8.404;2022-12-10T04:12:12;22.93;;;11.90;;
16766;SDS011;8501;49.926;8.404;2022-12-10T04:14:38;23.20;;;11.67;;
16766;SDS011;8501;49.926;8.404;2022-12-10T04:17:23;23.63;;;11.17;;
16766;SDS011;8501;49.926;8.404;2022-12-10T04:19:49;23.33;;;11.60;;
16766;SDS011;8501;49.926;8.404;2022-12-10T04:22:14;22.40;;;11.27;;
16766;SDS011;8501;49.926;8.404;2022-12-10T04:24:58;20.30;;;10.37;;
16766;SDS011;8501;49.926;8.404;2022-12-10T04:27:42;22.53;;;11.27;;
16766;SDS011;8501;49.926;8.404;2022-12-10T04:30:09;22.97;;;11.37;;
16766;SDS011;8501;49.926;8.404;2022-12-10T04:32:36;21.00;;;10.73;;
16766;SDS011;8501;49.926;8.404;2022-12-10T04:35:01;22.50;;;11.37;;
16766;SDS011;8501;49.926;8.404;2022-12-10T04:37:28;21.00;;;10.40;;
16766;SDS011;8501;49.926;8.404;2022-12-10T04:39:54;22.73;;;11.13;;
16766;SDS011;8501;49.926;8.404;2022-12-10T04:42:20;23.60;;;10.70;;
16766;SDS011;8501;49.926;8.404;2022-12-10T04:44:46;20.30;;;10.40;;
16766;SDS011;8501;49.926;8.404;2022-12-10T04:47:12;21.03;;;10.67;;
16766;SDS011;8501;49.926;8.404;2022-12-10T04:49:38;23.60;;;11.10;;
16766;SDS011;8501;49.926;8.404;2022-12-10T04:52:05;21.40;;;11.27;;
16766;SDS011;8501;49.926;8.404;2022-12-10T04:54:31;24.20;;;12.00;;
16766;SDS011;8501;49.926;8.404;2022-12-10T04:56:57;21.83;;;11.13;;
16766;SDS011;8501;49.926;8.404;2022-12-10T04:59:23;21.97;;;10.90;;
16766;SDS011;8501;49.926;8.404;2022-12-10T05:01:48;23.43;;;11.10;;
16766;SDS011;8501;49.926;8.404;2022-12-10T05:04:15;20.20;;;10.97;;
16766;SDS011;8501;49.926;8.404;2022-12-10T05:06:42;23.13;;;11.10;;
16766;SDS011;8501;49.926;8.404;2022-12-10T05:09:09;21.07;;;10.73;;
16766;SDS011;8501;49.926;8.404;2022-12-10T05:11:36;24.47;;;12.07;;
16766;SDS011;8501;49.926;8.404;2022-12-10T05:14:02;23.10;;;11.63;;
16766;SDS011;8501;49.926;8.404;2022-12-10T05:16:28;21.73;;;11.40;;
16766;SDS011;8501;49.926;8.404;2022-12-10T05:18:56;23.20;;;11.73;;
16766;SDS011;8501;49.926;8.404;2022-12-10T05:21:22;22.13;;;11.27;;
16766;SDS011;8501;49.926;8.404;2022-12-10T05:23:50;23.17;;;12.07;;
16766;SDS011;8501;49.926;8.404;2022-12-10T05:28:54;22.40;;;11.97;;
16766;SDS011;8501;49.926;8.404;2022-12-10T05:31:22;23.90;;;12.10;;
16766;SDS011;8501;49.926;8.404;2022-12-10T05:33:49;20.53;;;11.20;;
16766;SDS011;8501;49.926;8.404;2022-12-10T05:36:17;25.10;;;12.17;;
16766;SDS011;8501;49.926;8.404;2022-12-10T05:38:44;20.90;;;10.90;;
16766;SDS011;8501;49.926;8.404;2022-12-10T05:41:11;26.70;;;11.60;;
16766;SDS011;8501;49.926;8.404;2022-12-10T05:43:39;23.63;;;12.27;;
16766;SDS011;8501;49.926;8.404;2022-12-10T05:46:06;24.40;;;11.93;;
16766;SDS011;8501;49.926;8.404;2022-12-10T05:48:35;24.83;;;11.53;;
16766;SDS011;8501;49.926;8.404;2022-12-10T05:51:04;23.77;;;12.57;;
16766;SDS011;8501;49.926;8.404;2022-12-10T05:53:31;22.63;;;11.37;;
16766;SDS011;8501;49.926;8.404;2022-12-10T05:56:06;24.40;;;12.07;;
16766;SDS011;8501;49.926;8.404;2022-12-10T05:58:37;22.37;;;11.17;;
16766;SDS011;8501;49.926;8.404;2022-12-10T06:01:07;23.20;;;11.17;;
16766;SDS011;8501;49.926;8.404;2022-12-10T06:03:53;24.43;;;11.77;;
16766;SDS011;8501;49.926;8.404;2022-12-10T06:06:20;24.40;;;11.77;;
16766;SDS011;8501;49.926;8.404;2022-12-10T06:08:47;23.07;;;11.97;;
16766;SDS011;8501;49.926;8.404;2022-12-10T06:11:13;26.03;;;12.27;;
16766;SDS011;8501;49.926;8.404;2022-12-10T06:13:38;20.10;;;10.80;;
16766;SDS011;8501;49.926;8.404;2022-12-10T06:16:05;22.73;;;11.63;;
16766;SDS011;8501;49.926;8.404;2022-12-10T06:18:35;21.10;;;10.63;;
16766;SDS011;8501;49.926;8.404;2022-12-10T06:21:07;22.10;;;11.50;;
16766;SDS011;8501;49.926;8.404;2022-12-10T06:23:35;21.10;;;10.83;;
16766;SDS011;8501;49.926;8.404;2022-12-10T06:26:09;23.63;;;11.40;;
16766;SDS011;8501;49.926;8.404;2022-12-10T06:28:36;22.57;;;11.53;;
16766;SDS011;8501;49.926;8.404;2022-12-10T06:31:02;21.67;;;11.30;;
16766;SDS011;8501;49.926;8.404;2022-12-10T06:33:28;24.00;;;12.30;;
16766;SDS011;8501;49.926;8.404;2022-12-10T06:35:53;23.03;;;11.93;;
16766;SDS011;8501;49.926;8.404;2022-12-10T06:38:19;24.07;;;12.83;;
16766;SDS011;8501;49.926;8.404;2022-12-10T06:40:45;22.27;;;11.40;;
16766;SDS011;8501;49.926;8.404;2022-12-10T06:43:10;23.23;;;12.10;;
16766;SDS011;8501;49.926;8.404;2022-12-10T06:45:39;24.23;;;12.47;;
16766;SDS011;8501;49.926;8.404;2022-12-10T06:48:06;23.37;;;12.10;;
16766;SDS011;8501;49.926;8.404;2022-12-10T06:50:31;21.37;;;11.57;;
16766;SDS011;8501;49.926;8.404;2022-12-10T06:52:57;23.23;;;11.40;;
16766;SDS011;8501;49.926;8.404;2022-12-10T06:55:22;21.27;;;11.70;;
16766;SDS011;8501;49.926;8.404;2022-12-10T06:57:52;22.53;;;11.37;;
16766;SDS011;8501;49.926;8.404;2022-12-10T07:00:19;23.27;;;11.47;;
16766;SDS011;8501;49.926;8.404;2022-12-10T07:02:45;24.07;;;11.87;;
16766;SDS011;8501;49.926;8.404;2022-12-10T07:05:11;22.27;;;11.93;;
16766;SDS011;8501;49.926;8.404;2022-12-10T07:07:37;21.30;;;11.13;;
16766;SDS011;8501;49.926;8.404;2022-12-10T07:10:03;23.67;;;12.50;;
16766;SDS011;8501;49.926;8.404;2022-12-10T07:12:29;24.27;;;12.07;;
16766;SDS011;8501;49.926;8.404;2022-12-10T07:14:55;23.33;;;11.77;;
16766;SDS011;8501;49.926;8.404;2022-12-10T07:17:20;24.93;;;12.07;;
16766;SDS011;8501;49.926;8.404;2022-12-10T07:19:46;23.03;;;12.10;;
16766;SDS011;8501;49.926;8.404;2022-12-10T07:22:11;23.27;;;11.93;;
16766;SDS011;8501;49.926;8.404;2022-12-10T07:24:37;22.43;;;12.27;;
16766;SDS011;8501;49.926;8.404;2022-12-10T07:27:06;23.50;;;11.97;;
16766;SDS011;8501;49.926;8.404;2022-12-10T07:29:32;23.73;;;12.63;;
16766;SDS011;8501;49.926;8.404;2022-12-10T07:31:58;25.83;;;13.40;;
16766;SDS011;8501;49.926;8.404;2022-12-10T07:34:23;25.03;;;13.03;;
16766;SDS011;8501;49.926;8.404;2022-12-10T07:36:49;26.13;;;13.60;;
16766;SDS011;8501;49.926;8.404;2022-12-10T07:39:14;25.20;;;13.53;;
16766;SDS011;8501;49.926;8.404;2022-12-10T07:41:51;27.13;;;13.33;;
16766;SDS011;8501;49.926;8.404;2022-12-10T07:44:18;24.20;;;12.60;;
16766;SDS011;8501;49.926;8.404;2022-12-10T07:46:46;23.00;;;12.07;;
16766;SDS011;8501;49.926;8.404;2022-12-10T07:49:12;24.10;;;12.40;;
16766;SDS011;8501;49.926;8.404;2022-12-10T07:51:38;22.97;;;11.83;;
16766;SDS011;8501;49.926;8.404;2022-12-10T07:54:03;23.07;;;12.70;;
16766;SDS011;8501;49.926;8.404;2022-12-10T07:56:29;26.30;;;12.83;;
16766;SDS011;8501;49.926;8.404;2022-12-10T07:58:55;27.47;;;12.83;;
16766;SDS011;8501;49.926;8.404;2022-12-10T08:01:22;25.33;;;12.43;;
16766;SDS011;8501;49.926;8.404;2022-12-10T08:03:49;22.23;;;12.53;;
16766;SDS011;8501;49.926;8.404;2022-12-10T08:06:16;22.47;;;12.07;;
16766;SDS011;8501;49.926;8.404;2022-12-10T08:08:43;29.10;;;14.57;;
16766;SDS011;8501;49.926;8.404;2022-12-10T08:11:10;99.30;;;49.83;;
16766;SDS011;8501;49.926;8.404;2022-12-10T08:13:37;140.17;;;70.87;;
16766;SDS011;8501;49.926;8.404;2022-12-10T08:16:07;86.27;;;46.17;;
16766;SDS011;8501;49.926;8.404;2022-12-10T08:18:36;44.03;;;22.87;;
16766;SDS011;8501;49.926;8.404;2022-12-10T08:21:05;29.93;;;15.93;;
16766;SDS011;8501;49.926;8.404;2022-12-10T08:23:32;32.73;;;21.07;;
16766;SDS011;8501;49.926;8.404;2022-12-10T08:25:58;72.90;;;38.77;;
16766;SDS011;8501;49.926;8.404;2022-12-10T08:28:24;60.40;;;31.07;;
16766;SDS011;8501;49.926;8.404;2022-12-10T08:30:49;35.93;;;19.20;;
16766;SDS011;8501;49.926;8.404;2022-12-10T08:33:15;28.23;;;14.33;;
16766;SDS011;8501;49.926;8.404;2022-12-10T08:35:40;26.30;;;13.97;;
16766;SDS011;8501;49.926;8.404;2022-12-10T08:38:06;27.80;;;14.20;;
16766;SDS011;8501;49.926;8.404;2022-12-10T08:40:31;26.10;;;13.00;;
16766;SDS011;8501;49.926;8.404;2022-12-10T08:42:57;30.80;;;15.80;;
16766;SDS011;8501;49.926;8.404;2022-12-10T08:45:23;29.77;;;16.30;;
16766;SDS011;8501;49.926;8.404;2022-12-10T08:47:48;32.53;;;17.80;;
16766;SDS011;8501;49.926;8.404;2022-12-10T08:50:14;27.60;;;14.50;;
16766;SDS011;8501;49.926;8.404;2022-12-10T08:52:39;25.47;;;13.17;;
16766;SDS011;8501;49.926;8.404;2022-12-10T08:55:05;24.27;;;12.70;;
16766;SDS011;8501;49.926;8.404;2022-12-10T08:57:31;27.53;;;14.10;;
16766;SDS011;8501;49.926;8.404;2022-12-10T08:59:56;26.90;;;14.23;;
16766;SDS011;8501;49.926;8.404;2022-12-10T09:02:22;24.77;;;12.67;;
16766;SDS011;8501;49.926;8.404;2022-12-10T09:04:49;23.53;;;12.43;;
16766;SDS011;8501;49.926;8.404;2022-12-10T09:07:15;23.47;;;11.93;;
16766;SDS011;8501;49.926;8.404;2022-12-10T09:09:41;119.00;;;37.57;;
16766;SDS011;8501;49.926;8.404;2022-12-10T09:12:06;156.00;;;42.20;;
16766;SDS011;8501;49.926;8.404;2022-12-10T09:14:32;305.77;;;70.07;;
16766;SDS011;8501;49.926;8.404;2022-12-10T09:16:57;187.30;;;47.73;;
16766;SDS011;8501;49.926;8.404;2022-12-10T09:19:23;272.53;;;57.47;;
16766;SDS011;8501;49.926;8.404;2022-12-10T09:21:48;319.27;;;65.40;;
16766;SDS011;8501;49.926;8.404;2022-12-10T09:24:14;249.87;;;52.43;;
16766;SDS011;8501;49.926;8.404;2022-12-10T09:26:39;353.17;;;73.17;;
16766;SDS011;8501;49.926;8.404;2022-12-10T09:29:05;399.00;;;90.07;;
16766;SDS011;8501;49.926;8.404;2022-12-10T09:31:31;445.70;;;106.07;;
16766;SDS011;8501;49.926;8.404;2022-12-10T09:33:56;246.53;;;56.50;;
16766;SDS011;8501;49.926;8.404;2022-12-10T09:36:22;299.10;;;60.43;;
16766;SDS011;8501;49.926;8.404;2022-12-10T09:38:48;326.13;;;84.40;;
16766;SDS011;8501;49.926;8.404;2022-12-10T09:46:12;63.80;;;40.50;;
16766;SDS011;8501;49.926;8.404;2022-12-10T09:49:36;43.00;;;27.63;;
16766;SDS011;8501;49.926;8.404;2022-12-10T09:51:36;27.90;;;14.57;;
16766;SDS011;8501;49.926;8.404;2022-12-10T09:54:04;26.53;;;13.70;;
16766;SDS011;8501;49.926;8.404;2022-12-10T09:56:49;24.13;;;12.90;;
16766;SDS011;8501;49.926;8.404;2022-12-10T10:01:49;28.43;;;13.70;;
16766;SDS011;8501;49.926;8.404;2022-12-10T10:04:23;25.03;;;12.40;;
16766;SDS011;8501;49.926;8.404;2022-12-10T10:06:49;27.13;;;13.70;;
16766;SDS011;8501;49.926;8.404;2022-12-10T10:09:15;26.60;;;13.07;;
16766;SDS011;8501;49.926;8.404;2022-12-10T10:11:42;28.90;;;13.77;;
16766;SDS011;8501;49.926;8.404;2022-12-10T10:17:08;39.77;;;15.40;;
16766;SDS011;8501;49.926;8.404;2022-12-10T10:19:45;49.33;;;20.53;;
16766;SDS011;8501;49.926;8.404;2022-12-10T10:22:11;46.30;;;18.80;;
16766;SDS011;8501;49.926;8.404;2022-12-10T10:24:40;73.33;;;23.03;;
16766;SDS011;8501;49.926;8.404;2022-12-10T10:27:12;92.27;;;28.70;;
16766;SDS011;8501;49.926;8.404;2022-12-10T10:29:44;43.03;;;19.23;;
16766;SDS011;8501;49.926;8.404;2022-12-10T10:34:40;27.13;;;13.60;;
16766;SDS011;8501;49.926;8.404;2022-12-10T10:37:06;24.17;;;12.37;;
16766;SDS011;8501;49.926;8.404;2022-12-10T10:39:39;24.73;;;12.53;;
16766;SDS011;8501;49.926;8.404;2022-12-10T10:42:11;32.03;;;15.60;;
16766;SDS011;8501;49.926;8.404;2022-12-10T10:44:44;27.37;;;13.17;;
16766;SDS011;8501;49.926;8.404;2022-12-10T10:47:32;22.60;;;12.13;;
16766;SDS011;8501;49.926;8.404;2022-12-10T10:49:59;22.70;;;11.87;;
16766;SDS011;8501;49.926;8.404;2022-12-10T10:52:30;24.17;;;11.87;;
16766;SDS011;8501;49.926;8.404;2022-12-10T10:55:00;22.53;;;10.97;;
16766;SDS011;8501;49.926;8.404;2022-12-10T10:57:32;21.70;;;11.00;;
16766;SDS011;8501;49.926;8.404;2022-12-10T11:00:04;20.30;;;10.43;;
16766;SDS011;8501;49.926;8.404;2022-12-10T11:02:36;20.17;;;10.83;;
16766;SDS011;8501;49.926;8.404;2022-12-10T11:05:29;21.17;;;10.90;;
16766;SDS011;8501;49.926;8.404;2022-12-10T11:08:01;21.00;;;11.07;;
16766;SDS011;8501;49.926;8.404;2022-12-10T11:10:28;21.77;;;10.67;;
16766;SDS011;8501;49.926;8.404;2022-12-10T11:13:05;22.63;;;10.97;;
16766;SDS011;8501;49.926;8.404;2022-12-10T11:15:38;22.07;;;10.90;;
16766;SDS011;8501;49.926;8.404;2022-12-10T11:18:25;20.67;;;10.40;;
16766;SDS011;8501;49.926;8.404;2022-12-10T11:21:15;22.43;;;11.03;;
16766;SDS011;8501;49.926;8.404;2022-12-10T11:23:48;21.43;;;10.53;;
16766;SDS011;8501;49.926;8.404;2022-12-10T11:26:21;44.57;;;17.57;;
16766;SDS011;8501;49.926;8.404;2022-12-10T11:35:16;24.10;;;13.00;;
16766;SDS011;8501;49.926;8.404;2022-12-10T11:40:30;20.73;;;10.87;;
16766;SDS011;8501;49.926;8.404;2022-12-10T11:43:04;22.30;;;11.87;;
16766;SDS011;8501;49.926;8.404;2022-12-10T11:54:07;21.27;;;10.27;;
16766;SDS011;8501;49.926;8.404;2022-12-10T12:05:15;16.17;;;8.30;;
16766;SDS011;8501;49.926;8.404;2022-12-10T12:08:05;16.87;;;8.80;;
16766;SDS011;8501;49.926;8.404;2022-12-10T12:13:18;14.80;;;8.17;;
16766;SDS011;8501;49.926;8.404;2022-12-10T12:15:56;16.17;;;8.70;;
16766;SDS011;8501;49.926;8.404;2022-12-10T12:21:15;19.57;;;10.57;;
16766;SDS011;8501;49.926;8.404;2022-12-10T12:23:55;19.40;;;10.80;;
16766;SDS011;8501;49.926;8.404;2022-12-10T12:26:30;21.33;;;12.60;;
16766;SDS011;8501;49.926;8.404;2022-12-10T12:37:25;19.40;;;11.37;;
16766;SDS011;8501;49.926;8.404;2022-12-10T12:40:16;21.07;;;11.70;;
16766;SDS011;8501;49.926;8.404;2022-12-10T12:43:07;20.10;;;11.00;;
16766;SDS011;8501;49.926;8.404;2022-12-10T12:45:40;19.73;;;10.80;;
16766;SDS011;8501;49.926;8.404;2022-12-10T12:48:26;18.03;;;10.27;;
16766;SDS011;8501;49.926;8.404;2022-12-10T12:53:39;17.40;;;11.23;;
16766;SDS011;8501;49.926;8.404;2022-12-10T12:56:07;22.13;;;13.73;;
16766;SDS011;8501;49.926;8.404;2022-12-10T12:58:47;20.93;;;11.83;;
16766;SDS011;8501;49.926;8.404;2022-12-10T13:03:58;22.57;;;13.27;;
16766;SDS011;8501;49.926;8.404;2022-12-10T13:06:25;22.07;;;13.83;;
16766;SDS011;8501;49.926;8.404;2022-12-10T13:11:41;23.67;;;14.57;;
16766;SDS011;8501;49.926;8.404;2022-12-10T13:14:16;17.43;;;10.53;;
16766;SDS011;8501;49.926;8.404;2022-12-10T13:17:00;34.03;;;18.07;;
16766;SDS011;8501;49.926;8.404;2022-12-10T13:19:39;19.60;;;10.63;;
16766;SDS011;8501;49.926;8.404;2022-12-10T13:22:11;22.90;;;11.67;;
16766;SDS011;8501;49.926;8.404;2022-12-10T13:25:17;19.40;;;10.93;;
16766;SDS011;8501;49.926;8.404;2022-12-10T13:27:56;24.23;;;11.70;;
16766;SDS011;8501;49.926;8.404;2022-12-10T13:30:40;20.70;;;10.67;;
16766;SDS011;8501;49.926;8.404;2022-12-10T13:33:18;20.50;;;11.17;;
16766;SDS011;8501;49.926;8.404;2022-12-10T13:35:51;21.70;;;10.80;;
16766;SDS011;8501;49.926;8.404;2022-12-10T13:38:25;20.40;;;10.27;;
16766;SDS011;8501;49.926;8.404;2022-12-10T13:41:00;18.97;;;10.63;;
16766;SDS011;8501;49.926;8.404;2022-12-10T13:43:54;21.03;;;10.90;;
16766;SDS011;8501;49.926;8.404;2022-12-10T13:47:00;18.63;;;9.77;;
16766;SDS011;8501;49.926;8.404;2022-12-10T13:49:42;20.10;;;10.70;;
16766;SDS011;8501;49.926;8.404;2022-12-10T13:52:17;23.60;;;11.80;;
16766;SDS011;8501;49.926;8.404;2022-12-10T13:55:02;20.07;;;11.40;;
16766;SDS011;8501;49.926;8.404;2022-12-10T14:00:29;24.50;;;11.87;;
16766;SDS011;8501;49.926;8.404;2022-12-10T14:05:55;20.77;;;11.10;;
16766;SDS011;8501;49.926;8.404;2022-12-10T14:09:29;27.27;;;13.47;;
16766;SDS011;8501;49.926;8.404;2022-12-10T14:11:37;26.57;;;14.03;;
16766;SDS011;8501;49.926;8.404;2022-12-10T14:14:10;23.90;;;13.10;;
16766;SDS011;8501;49.926;8.404;2022-12-10T14:16:41;21.57;;;11.20;;
16766;SDS011;8501;49.926;8.404;2022-12-10T14:19:07;23.97;;;11.57;;
16766;SDS011;8501;49.926;8.404;2022-12-10T14:21:39;22.33;;;11.80;;
16766;SDS011;8501;49.926;8.404;2022-12-10T14:24:25;19.53;;;9.63;;
16766;SDS011;8501;49.926;8.404;2022-12-10T14:27:15;21.60;;;10.93;;
16766;SDS011;8501;49.926;8.404;2022-12-10T14:29:45;25.50;;;11.53;;
16766;SDS011;8501;49.926;8.404;2022-12-10T14:32:23;22.10;;;11.90;;
16766;SDS011;8501;49.926;8.404;2022-12-10T14:34:57;32.63;;;14.63;;
16766;SDS011;8501;49.926;8.404;2022-12-10T14:37:25;28.80;;;13.30;;
16766;SDS011;8501;49.926;8.404;2022-12-10T14:39:52;24.10;;;11.13;;
16766;SDS011;8501;49.926;8.404;2022-12-10T14:42:19;19.27;;;11.07;;
16766;SDS011;8501;49.926;8.404;2022-12-10T14:44:45;20.93;;;11.40;;
16766;SDS011;8501;49.926;8.404;2022-12-10T14:47:13;24.23;;;12.77;;
16766;SDS011;8501;49.926;8.404;2022-12-10T14:49:42;38.77;;;19.87;;
16766;SDS011;8501;49.926;8.404;2022-12-10T14:52:14;32.83;;;17.30;;
16766;SDS011;8501;49.926;8.404;2022-12-10T14:54:56;29.20;;;14.87;;
16766;SDS011;8501;49.926;8.404;2022-12-10T15:02:30;28.80;;;16.07;;
16766;SDS011;8501;49.926;8.404;2022-12-10T15:05:10;27.20;;;15.73;;
16766;SDS011;8501;49.926;8.404;2022-12-10T15:07:38;31.20;;;17.70;;
16766;SDS011;8501;49.926;8.404;2022-12-10T15:10:06;42.87;;;21.47;;
16766;SDS011;8501;49.926;8.404;2022-12-10T15:12:47;33.60;;;17.83;;
16766;SDS011;8501;49.926;8.404;2022-12-10T15:15:26;36.77;;;18.53;;
16766;SDS011;8501;49.926;8.404;2022-12-10T15:17:58;48.57;;;22.40;;
16766;SDS011;8501;49.926;8.404;2022-12-10T15:20:29;33.77;;;16.73;;
16766;SDS011;8501;49.926;8.404;2022-12-10T15:23:07;33.37;;;16.83;;
16766;SDS011;8501;49.926;8.404;2022-12-10T15:25:46;28.37;;;15.57;;
16766;SDS011;8501;49.926;8.404;2022-12-10T15:28:24;21.93;;;13.63;;
16766;SDS011;8501;49.926;8.404;2022-12-10T15:30:55;23.53;;;14.40;;
16766;SDS011;8501;49.926;8.404;2022-12-10T15:33:43;26.60;;;13.70;;
16766;SDS011;8501;49.926;8.404;2022-12-10T15:36:19;28.10;;;13.60;;
16766;SDS011;8501;49.926;8.404;2022-12-10T15:38:46;22.47;;;13.43;;
16766;SDS011;8501;49.926;8.404;2022-12-10T15:41:22;23.90;;;12.60;;
16766;SDS011;8501;49.926;8.404;2022-12-10T15:44:14;23.87;;;13.80;;
16766;SDS011;8501;49.926;8.404;2022-12-10T15:49:33;27.57;;;13.80;;
16766;SDS011;8501;49.926;8.404;2022-12-10T15:51:59;25.67;;;14.13;;
16766;SDS011;8501;49.926;8.404;2022-12-10T15:54:32;24.03;;;13.33;;
16766;SDS011;8501;49.926;8.404;2022-12-10T15:57:04;27.53;;;13.63;;
16766;SDS011;8501;49.926;8.404;2022-12-10T15:59:37;26.50;;;14.00;;
16766;SDS011;8501;49.926;8.404;2022-12-10T16:02:02;30.90;;;15.93;;
16766;SDS011;8501;49.926;8.404;2022-12-10T16:04:32;32.60;;;16.50;;
16766;SDS011;8501;49.926;8.404;2022-12-10T16:06:58;32.83;;;17.87;;
16766;SDS011;8501;49.926;8.404;2022-12-10T16:09:23;32.93;;;17.33;;
16766;SDS011;8501;49.926;8.404;2022-12-10T16:11:49;58.37;;;25.50;;
16766;SDS011;8501;49.926;8.404;2022-12-10T16:14:15;55.40;;;27.50;;
16766;SDS011;8501;49.926;8.404;2022-12-10T16:16:40;58.20;;;28.20;;
16766;SDS011;8501;49.926;8.404;2022-12-10T16:19:10;37.77;;;20.33;;
16766;SDS011;8501;49.926;8.404;2022-12-10T16:21:36;34.67;;;17.53;;
16766;SDS011;8501;49.926;8.404;2022-12-10T16:24:02;58.40;;;27.87;;
16766;SDS011;8501;49.926;8.404;2022-12-10T16:26:27;128.57;;;49.00;;
16766;SDS011;8501;49.926;8.404;2022-12-10T16:28:53;50.90;;;25.87;;